Time;durP1;ratioP1;P1;durP2;ratioP2;P2;SDS_P1;SDS_P2;PMS_P1;PMS_P2;Temp;Humidity;BMP_temperature;BMP_pressure;BME280_temperature;BME280_humidity;BME280_pressure;Samples;Min_cycle;Max_cycle;Signal;HPM_P1;HPM_P2
2023/03/19 00:00:10;;;;;;;3.63;1.90;;;14.10;96.80;;;;;;5117240;28;20442;-58
2023/03/19 00:02:37;;;;;;;3.13;1.20;;;14.00;97.00;;;;;;5116936;28;20486;-57
2023/03/19 00:05:05;;;;;;;3.60;1.50;;;14.10;97.30;;;;;;5117071;28;20442;-57
2023/03/19 00:07:32;;;;;;;3.43;1.30;;;14.00;97.40;;;;;;5116741;28;20928;-58
2023/03/19 00:10:00;;;;;;;2.07;1.00;;;14.10;97.60;;;;;;5116906;28;20469;-58
2023/03/19 00:12:26;;;;;;;4.60;1.67;;;14.10;97.80;;;;;;5117412;28;20470;-58
2023/03/19 00:14:53;;;;;;;3.83;1.53;;;14.00;97.90;;;;;;5116804;28;20439;-58
2023/03/19 00:17:20;;;;;;;2.30;1.47;;;13.90;98.30;;;;;;5117024;28;20447;-58
2023/03/19 00:19:47;;;;;;;2.17;1.30;;;13.90;98.10;;;;;;5116506;28;20997;-58
2023/03/19 00:22:14;;;;;;;2.90;1.53;;;13.80;98.40;;;;;;5116331;28;20474;-58
2023/03/19 00:24:40;;;;;;;2.93;1.40;;;13.70;98.60;;;;;;5116414;28;20947;-58
2023/03/19 00:27:09;;;;;;;3.33;1.30;;;13.70;98.80;;;;;;5114968;28;20944;-58
2023/03/19 00:29:36;;;;;;;4.03;1.60;;;13.70;98.80;;;;;;5116450;28;20454;-58
2023/03/19 00:32:03;;;;;;;1.43;1.33;;;13.80;99.20;;;;;;5117817;28;20443;-58
2023/03/19 00:34:30;;;;;;;1.30;1.10;;;13.80;98.70;;;;;;5118169;28;20447;-58
2023/03/19 00:36:56;;;;;;;3.40;1.43;;;13.80;98.60;;;;;;5117180;28;20541;-57
2023/03/19 00:39:23;;;;;;;1.40;1.23;;;13.80;98.70;;;;;;5116888;28;20462;-58
2023/03/19 00:41:50;;;;;;;2.47;1.73;;;13.80;98.60;;;;;;5116456;28;20486;-58
2023/03/19 00:44:18;;;;;;;3.30;1.70;;;13.80;98.60;;;;;;5115967;28;20882;-58
2023/03/19 00:46:45;;;;;;;1.30;1.20;;;13.70;98.40;;;;;;5116548;28;20446;-58
2023/03/19 00:49:12;;;;;;;2.67;1.40;;;13.70;98.50;;;;;;5116418;28;20450;-58
2023/03/19 00:51:42;;;;;;;2.30;1.70;;;13.70;98.60;;;;;;5115900;28;20969;-58
2023/03/19 00:54:11;;;;;;;2.10;1.47;;;13.60;98.60;;;;;;5115980;28;20907;-58
2023/03/19 00:56:38;;;;;;;3.90;1.90;;;13.60;98.70;;;;;;5115922;28;20933;-58
2023/03/19 00:59:05;;;;;;;5.83;1.83;;;13.60;98.70;;;;;;5116092;28;20439;-58
2023/03/19 01:01:33;;;;;;;5.70;1.23;;;13.60;98.80;;;;;;5116018;28;20443;-58
2023/03/19 01:04:00;;;;;;;3.20;1.53;;;13.50;98.90;;;;;;5115963;28;20471;-58
2023/03/19 01:06:27;;;;;;;5.13;1.70;;;13.50;98.90;;;;;;5115494;28;20789;-57
2023/03/19 01:08:53;;;;;;;4.63;1.40;;;13.50;98.90;;;;;;5115983;28;20455;-58
2023/03/19 01:11:21;;;;;;;5.70;1.70;;;13.60;98.90;;;;;;5115842;28;20447;-58
2023/03/19 01:13:48;;;;;;;3.67;1.90;;;13.60;99.00;;;;;;5115811;28;20478;-58
2023/03/19 01:16:14;;;;;;;5.83;1.60;;;13.60;99.00;;;;;;5115791;28;20446;-58
2023/03/19 01:18:42;;;;;;;4.70;1.80;;;13.50;98.90;;;;;;5115508;28;20514;-58
2023/03/19 01:21:09;;;;;;;3.33;2.20;;;13.50;99.00;;;;;;5115678;28;20447;-58
2023/03/19 01:23:36;;;;;;;4.60;2.00;;;13.50;98.90;;;;;;5115517;28;20486;-58
2023/03/19 01:26:02;;;;;;;5.37;2.00;;;13.50;98.70;;;;;;5115598;28;20450;-58
2023/03/19 01:28:29;;;;;;;7.00;2.33;;;13.60;98.60;;;;;;5115520;28;20442;-58
2023/03/19 01:30:59;;;;;;;3.73;1.87;;;13.60;98.50;;;;;;5115577;28;20443;-58
2023/03/19 01:33:26;;;;;;;3.27;2.00;;;13.60;98.30;;;;;;5115541;28;20509;-58
2023/03/19 01:35:54;;;;;;;3.07;2.30;;;13.60;98.20;;;;;;5115301;28;20450;-57
2023/03/19 01:38:21;;;;;;;3.83;2.73;;;13.60;98.30;;;;;;5114638;28;20471;-58
2023/03/19 01:40:48;;;;;;;5.07;2.37;;;13.60;98.20;;;;;;5115293;28;20458;-58
2023/03/19 01:43:18;;;;;;;3.13;2.03;;;13.50;97.80;;;;;;5115118;28;20561;-58
2023/03/19 01:45:46;;;;;;;4.30;3.00;;;13.50;97.70;;;;;;5116380;28;20512;-58
2023/03/19 01:48:23;;;;;;;3.83;2.70;;;13.50;97.60;;;;;;5114932;28;20457;-58
2023/03/19 01:50:52;;;;;;;3.97;3.13;;;13.40;97.70;;;;;;5115124;28;20788;-58
2023/03/19 01:53:24;;;;;;;5.00;3.53;;;13.30;97.70;;;;;;5115010;28;20892;-58
2023/03/19 01:55:52;;;;;;;4.57;3.93;;;13.30;97.80;;;;;;5115000;28;20437;-58
2023/03/19 01:58:19;;;;;;;7.53;3.70;;;13.20;97.90;;;;;;5115046;28;20450;-58
2023/03/19 02:00:46;;;;;;;6.17;3.30;;;13.20;97.70;;;;;;5114594;28;20783;-58
2023/03/19 02:03:13;;;;;;;4.70;3.23;;;13.20;97.50;;;;;;5114663;28;20493;-58
2023/03/19 02:05:42;;;;;;;5.90;3.23;;;13.20;97.50;;;;;;5114612;28;20967;-58
2023/03/19 02:08:13;;;;;;;6.33;3.20;;;13.20;97.50;;;;;;5114744;28;20447;-58
2023/03/19 02:10:44;;;;;;;5.00;3.20;;;13.20;97.40;;;;;;5114348;28;20930;-58
2023/03/19 02:13:11;;;;;;;4.83;2.83;;;13.30;97.50;;;;;;5114408;28;20845;-58
2023/03/19 02:15:38;;;;;;;7.57;2.87;;;13.30;97.40;;;;;;5114588;28;20481;-58
2023/03/19 02:18:05;;;;;;;4.57;3.53;;;13.30;97.60;;;;;;5115150;28;20487;-58
2023/03/19 02:20:36;;;;;;;5.80;3.33;;;13.40;98.00;;;;;;5114623;28;20545;-58
2023/03/19 02:23:11;;;;;;;7.20;3.37;;;13.40;98.20;;;;;;5114251;28;20999;-57
2023/03/19 02:25:43;;;;;;;7.83;3.20;;;13.40;98.40;;;;;;5115206;28;20430;-58
2023/03/19 02:28:12;;;;;;;4.10;3.23;;;13.40;98.40;;;;;;5114546;28;20430;-59
2023/03/19 02:30:39;;;;;;;7.63;3.53;;;13.40;98.30;;;;;;5114652;28;20447;-58
2023/03/19 02:33:06;;;;;;;5.80;3.40;;;13.40;98.20;;;;;;5113912;28;20467;-58
2023/03/19 02:35:35;;;;;;;7.90;3.20;;;13.50;98.20;;;;;;5114372;28;20443;-58
2023/03/19 02:38:04;;;;;;;3.93;3.63;;;13.50;98.10;;;;;;5113750;28;20836;-58
2023/03/19 02:40:36;;;;;;;3.33;3.03;;;13.50;97.90;;;;;;5114365;28;20451;-58
2023/03/19 02:43:02;;;;;;;4.90;3.43;;;13.40;98.00;;;;;;5114177;28;20485;-58
2023/03/19 02:45:31;;;;;;;5.20;3.30;;;13.40;98.00;;;;;;5114263;28;20454;-58
2023/03/19 02:48:01;;;;;;;7.33;3.00;;;13.40;97.70;;;;;;5114290;28;20478;-58
2023/03/19 02:50:27;;;;;;;8.27;4.53;;;13.40;97.50;;;;;;5113115;27;20864;-57
2023/03/19 02:52:54;;;;;;;5.40;3.40;;;13.30;97.40;;;;;;5114140;28;20462;-58
2023/03/19 02:55:21;;;;;;;7.50;3.20;;;13.30;97.50;;;;;;5113876;28;20944;-58
2023/03/19 02:57:48;;;;;;;6.80;3.33;;;13.30;97.40;;;;;;5114524;28;20443;-58
2023/03/19 03:00:17;;;;;;;11.00;3.53;;;13.20;97.30;;;;;;5113654;28;20940;-58
2023/03/19 03:02:45;;;;;;;4.30;2.90;;;13.20;97.40;;;;;;5113839;28;20493;-58
2023/03/19 03:05:13;;;;;;;7.10;3.30;;;13.20;97.60;;;;;;5113982;28;20446;-57
2023/03/19 03:07:42;;;;;;;6.23;2.80;;;13.20;97.40;;;;;;5113961;28;20474;-58
2023/03/19 03:10:09;;;;;;;4.13;3.23;;;13.20;97.30;;;;;;5113842;28;20861;-58
2023/03/19 03:12:37;;;;;;;8.93;2.40;;;13.20;97.40;;;;;;5113436;28;20972;-58
2023/03/19 03:15:05;;;;;;;3.23;2.50;;;13.10;97.30;;;;;;5113753;28;20443;-58
2023/03/19 03:17:31;;;;;;;5.70;2.83;;;13.10;97.30;;;;;;5113835;28;20446;-58
2023/03/19 03:20:00;;;;;;;6.03;2.40;;;13.10;97.50;;;;;;5113649;28;20439;-58
2023/03/19 03:22:26;;;;;;;5.73;2.87;;;13.10;97.50;;;;;;5113607;28;20536;-58
2023/03/19 03:24:53;;;;;;;4.87;2.97;;;13.00;97.60;;;;;;5113595;28;20458;-58
2023/03/19 03:27:20;;;;;;;4.13;2.50;;;13.00;97.60;;;;;;5113631;28;20466;-58
2023/03/19 03:29:47;;;;;;;6.10;2.40;;;13.00;97.50;;;;;;5113747;28;20518;-58
2023/03/19 03:32:14;;;;;;;8.27;3.10;;;13.00;97.60;;;;;;5113349;28;20447;-58
2023/03/19 03:34:41;;;;;;;2.83;2.63;;;13.00;97.60;;;;;;5114038;28;20479;-58
2023/03/19 03:37:09;;;;;;;6.53;2.83;;;13.00;97.70;;;;;;5114726;28;20446;-58
2023/03/19 03:39:36;;;;;;;3.93;1.90;;;13.00;97.60;;;;;;5114238;28;20487;-58
2023/03/19 03:42:03;;;;;;;4.90;2.27;;;13.00;97.70;;;;;;5114343;28;20447;-58
2023/03/19 03:44:30;;;;;;;5.07;2.53;;;13.00;97.80;;;;;;5113827;28;20450;-58
2023/03/19 03:46:57;;;;;;;5.90;2.67;;;13.00;97.90;;;;;;5113374;28;20475;-58
2023/03/19 03:49:23;;;;;;;4.60;2.60;;;13.10;98.00;;;;;;5113546;28;20943;-58
2023/03/19 03:51:50;;;;;;;3.77;1.90;;;13.10;97.90;;;;;;5113316;28;20841;-58
2023/03/19 03:54:18;;;;;;;4.80;2.20;;;13.10;98.00;;;;;;5113450;28;20466;-58
2023/03/19 03:56:45;;;;;;;3.90;2.47;;;13.10;98.00;;;;;;5113291;28;20944;-58
2023/03/19 03:59:11;;;;;;;4.57;2.83;;;13.10;98.10;;;;;;5113533;28;20450;-58
2023/03/19 04:01:38;;;;;;;5.07;1.80;;;13.10;98.10;;;;;;5114710;28;20455;-58
2023/03/19 04:04:05;;;;;;;6.70;2.33;;;13.10;98.20;;;;;;5117119;28;20490;-58
2023/03/19 04:06:32;;;;;;;3.67;2.43;;;13.10;98.30;;;;;;5116861;28;20940;-57
2023/03/19 04:08:58;;;;;;;12.33;2.67;;;13.00;98.50;;;;;;5117199;28;20507;-58
2023/03/19 04:11:26;;;;;;;5.33;3.00;;;13.10;98.60;;;;;;5117131;28;20492;-58
2023/03/19 04:13:55;;;;;;;5.93;2.07;;;13.10;98.60;;;;;;5116556;28;20523;-58
2023/03/19 04:16:22;;;;;;;3.03;1.93;;;13.10;98.60;;;;;;5117014;28;20450;-58
2023/03/19 04:18:48;;;;;;;2.50;2.30;;;13.10;98.70;;;;;;5116978;28;20445;-58
2023/03/19 04:21:15;;;;;;;5.30;2.20;;;13.10;98.60;;;;;;5117070;28;20442;-58
2023/03/19 04:23:42;;;;;;;3.13;2.07;;;13.10;98.70;;;;;;5116605;28;20504;-57
2023/03/19 04:26:11;;;;;;;7.30;2.03;;;13.10;98.70;;;;;;5116827;28;20447;-58
2023/03/19 04:28:39;;;;;;;4.83;2.70;;;13.10;98.70;;;;;;5116850;28;20447;-58
2023/03/19 04:31:08;;;;;;;7.00;2.30;;;13.10;98.70;;;;;;5116883;28;20469;-58
2023/03/19 04:33:35;;;;;;;6.83;2.13;;;13.10;98.70;;;;;;5116539;28;20463;-58
2023/03/19 04:36:02;;;;;;;4.13;2.20;;;13.10;98.70;;;;;;5116512;28;20811;-57
2023/03/19 04:38:28;;;;;;;4.87;2.43;;;13.10;98.80;;;;;;5116296;28;20470;-58
2023/03/19 04:40:55;;;;;;;10.80;2.80;;;13.10;98.70;;;;;;5117182;28;20457;-58
2023/03/19 04:43:23;;;;;;;12.60;2.53;;;13.10;98.70;;;;;;5116205;28;20493;-58
2023/03/19 04:45:51;;;;;;;14.10;2.90;;;13.10;98.80;;;;;;5116204;28;20542;-58
2023/03/19 04:48:18;;;;;;;3.70;1.90;;;13.10;98.80;;;;;;5116547;28;20454;-58
2023/03/19 04:50:45;;;;;;;3.20;2.20;;;13.10;98.90;;;;;;5116379;28;20443;-58
2023/03/19 04:53:13;;;;;;;2.70;2.23;;;13.10;98.80;;;;;;5116706;28;20471;-58
2023/03/19 04:55:39;;;;;;;4.87;2.93;;;13.10;98.90;;;;;;5116168;28;20446;-58
2023/03/19 04:58:07;;;;;;;2.83;1.93;;;13.10;98.90;;;;;;5115891;28;20447;-57
2023/03/19 05:00:34;;;;;;;3.47;2.23;;;13.10;98.80;;;;;;5116093;28;20454;-58
2023/03/19 05:03:02;;;;;;;9.00;2.30;;;13.10;98.80;;;;;;5116070;28;20482;-58
2023/03/19 05:05:29;;;;;;;3.67;2.70;;;13.10;98.90;;;;;;5115950;28;20439;-57
2023/03/19 05:07:57;;;;;;;2.47;2.13;;;13.00;98.90;;;;;;5116007;28;20451;-58
2023/03/19 05:10:24;;;;;;;4.80;2.37;;;13.00;98.90;;;;;;5115879;28;20446;-58
2023/03/19 05:12:50;;;;;;;4.20;2.30;;;13.00;99.00;;;;;;5115037;28;20471;-58
2023/03/19 05:15:17;;;;;;;8.47;2.70;;;13.00;99.20;;;;;;5115740;28;20451;-58
2023/03/19 05:17:44;;;;;;;4.60;2.37;;;13.00;99.30;;;;;;5115694;28;20446;-58
2023/03/19 05:20:13;;;;;;;6.20;2.20;;;13.00;99.40;;;;;;5115835;28;20446;-58
2023/03/19 05:22:40;;;;;;;4.30;2.10;;;13.00;99.60;;;;;;5115422;28;20502;-58
2023/03/19 05:25:07;;;;;;;5.73;2.60;;;13.00;99.60;;;;;;5115348;28;20833;-58
2023/03/19 05:27:34;;;;;;;10.53;2.83;;;13.00;99.60;;;;;;5115611;28;20448;-58
2023/03/19 05:30:01;;;;;;;4.83;2.63;;;13.00;99.70;;;;;;5115526;28;20500;-58
2023/03/19 05:32:28;;;;;;;3.63;2.47;;;13.00;99.70;;;;;;5115439;28;20494;-58
2023/03/19 05:34:54;;;;;;;5.40;2.63;;;13.00;99.70;;;;;;5115285;28;20530;-58
2023/03/19 05:37:22;;;;;;;5.33;2.47;;;13.00;99.70;;;;;;5115486;28;20872;-58
2023/03/19 05:39:49;;;;;;;3.87;2.20;;;13.00;99.70;;;;;;5115053;28;20450;-58
2023/03/19 05:42:16;;;;;;;4.37;2.70;;;13.00;99.70;;;;;;5115202;28;20520;-58
2023/03/19 05:44:43;;;;;;;8.90;2.60;;;13.00;99.70;;;;;;5115097;28;20552;-58
2023/03/19 05:47:11;;;;;;;5.73;3.10;;;13.00;99.90;;;;;;5115184;28;20455;-58
2023/03/19 05:49:38;;;;;;;8.77;2.57;;;13.00;99.90;;;;;;5114872;28;20469;-58
2023/03/19 05:52:05;;;;;;;5.50;2.40;;;13.00;99.90;;;;;;5114860;27;20462;-57
2023/03/19 05:54:33;;;;;;;5.20;3.00;;;13.00;99.90;;;;;;5114902;28;20499;-59
2023/03/19 05:57:01;;;;;;;4.10;2.13;;;13.10;99.90;;;;;;5114895;28;20508;-58
2023/03/19 05:59:28;;;;;;;5.23;2.30;;;13.10;99.90;;;;;;5114946;28;20496;-58
2023/03/19 06:01:54;;;;;;;6.00;2.30;;;13.10;99.90;;;;;;5114436;28;20500;-57
2023/03/19 06:04:21;;;;;;;9.37;2.60;;;13.10;99.90;;;;;;5114380;28;20987;-58
2023/03/19 06:06:48;;;;;;;5.00;3.13;;;13.10;99.90;;;;;;5114625;28;20450;-57
2023/03/19 06:09:14;;;;;;;8.80;4.73;;;13.10;99.90;;;;;;5114306;28;20443;-58
2023/03/19 06:11:42;;;;;;;14.60;6.53;;;13.10;99.90;;;;;;5115162;28;20451;-58
2023/03/19 06:14:09;;;;;;;9.83;6.10;;;13.10;99.90;;;;;;5114495;28;20531;-58
2023/03/19 06:16:36;;;;;;;9.30;5.40;;;13.10;99.90;;;;;;5114615;28;20806;-58
2023/03/19 06:19:03;;;;;;;5.37;4.40;;;13.10;99.90;;;;;;5114518;28;20470;-58
2023/03/19 06:21:30;;;;;;;19.30;7.33;;;13.10;99.90;;;;;;5114451;28;20446;-58
2023/03/19 06:23:57;;;;;;;13.40;6.00;;;13.00;99.90;;;;;;5113863;28;20987;-58
2023/03/19 06:26:24;;;;;;;7.90;4.57;;;13.10;99.90;;;;;;5114025;28;20948;-58
2023/03/19 06:28:52;;;;;;;9.47;4.57;;;13.10;99.90;;;;;;5114326;28;20785;-58
2023/03/19 06:31:20;;;;;;;8.57;3.63;;;13.10;99.90;;;;;;5114307;28;20454;-58
2023/03/19 06:33:47;;;;;;;9.20;3.30;;;13.00;99.90;;;;;;5113871;28;20836;-58
2023/03/19 06:36:14;;;;;;;4.73;3.33;;;13.00;99.90;;;;;;5113859;28;21038;-57
2023/03/19 06:38:41;;;;;;;4.20;3.00;;;13.10;99.90;;;;;;5113927;28;20538;-58
2023/03/19 06:41:08;;;;;;;6.27;3.40;;;13.00;99.90;;;;;;5115474;28;20442;-58
2023/03/19 06:43:35;;;;;;;3.87;2.80;;;13.10;99.90;;;;;;5114978;28;20487;-58
2023/03/19 06:46:05;;;;;;;6.43;3.33;;;13.10;99.90;;;;;;5114770;28;20874;-57
2023/03/19 06:48:33;;;;;;;6.73;3.37;;;13.10;99.90;;;;;;5114733;28;20453;-58
2023/03/19 06:51:00;;;;;;;4.00;2.87;;;13.10;99.90;;;;;;5114314;28;20453;-58
2023/03/19 06:53:27;;;;;;;4.17;2.60;;;13.20;99.90;;;;;;5114032;28;20463;-58
2023/03/19 06:55:54;;;;;;;7.87;3.37;;;13.20;99.90;;;;;;5114849;28;20454;-58
2023/03/19 06:58:21;;;;;;;6.43;3.30;;;13.20;99.90;;;;;;5114010;28;20446;-58
2023/03/19 07:00:48;;;;;;;3.50;3.20;;;13.30;99.90;;;;;;5114042;28;20470;-57
2023/03/19 07:03:16;;;;;;;4.20;2.93;;;13.30;99.90;;;;;;5113484;28;20976;-57
2023/03/19 07:05:43;;;;;;;4.97;3.47;;;13.30;99.90;;;;;;5113864;28;20492;-58
2023/03/19 07:08:10;;;;;;;4.80;3.80;;;13.30;99.90;;;;;;5113802;28;20811;-58
2023/03/19 07:10:37;;;;;;;3.70;3.33;;;13.20;99.90;;;;;;5113780;28;20447;-58
2023/03/19 07:13:04;;;;;;;3.87;3.57;;;13.20;99.90;;;;;;5113750;28;20499;-58
2023/03/19 07:15:31;;;;;;;6.93;4.23;;;13.20;99.90;;;;;;5113273;28;20872;-57
2023/03/19 07:17:57;;;;;;;4.00;3.53;;;13.20;99.90;;;;;;5113735;28;20469;-58
2023/03/19 07:20:25;;;;;;;5.37;4.07;;;13.20;99.90;;;;;;5113827;28;20450;-58
2023/03/19 07:22:53;;;;;;;4.47;3.87;;;13.20;99.90;;;;;;5113515;28;20971;-58
2023/03/19 07:25:20;;;;;;;4.33;4.03;;;13.20;99.90;;;;;;5113538;28;20581;-57
2023/03/19 07:27:47;;;;;;;3.80;3.50;;;13.20;99.90;;;;;;5113328;28;20801;-58
2023/03/19 07:30:15;;;;;;;3.43;3.23;;;13.20;99.90;;;;;;5113353;28;20785;-58
2023/03/19 07:32:42;;;;;;;4.53;4.13;;;13.30;99.90;;;;;;5113217;28;20887;-58
2023/03/19 07:35:10;;;;;;;5.90;3.60;;;13.30;99.90;;;;;;5112952;28;20496;-57
2023/03/19 07:37:38;;;;;;;4.07;3.77;;;13.40;99.90;;;;;;5116558;28;20450;-57
2023/03/19 07:40:06;;;;;;;6.40;3.33;;;13.50;99.90;;;;;;5117724;28;20434;-58
2023/03/19 07:42:32;;;;;;;5.30;3.37;;;13.60;99.90;;;;;;5117643;28;20493;-58
2023/03/19 07:45:01;;;;;;;4.93;4.00;;;13.70;99.90;;;;;;5117541;28;20479;-58
2023/03/19 07:47:27;;;;;;;4.20;3.43;;;13.70;99.90;;;;;;5117656;28;21034;-58
2023/03/19 07:49:54;;;;;;;3.90;3.60;;;13.80;99.90;;;;;;5117198;28;20985;-58
2023/03/19 07:52:21;;;;;;;3.67;3.37;;;13.90;99.90;;;;;;5117256;28;20466;-57
2023/03/19 07:54:49;;;;;;;3.50;2.70;;;14.10;99.90;;;;;;5117447;28;20447;-57
2023/03/19 07:57:16;;;;;;;3.33;3.00;;;14.20;99.90;;;;;;5116935;28;20952;-58
2023/03/19 07:59:43;;;;;;;3.53;2.90;;;14.40;99.90;;;;;;5117338;28;20461;-58
2023/03/19 08:02:11;;;;;;;2.83;2.63;;;14.50;99.80;;;;;;5117095;28;20811;-58
2023/03/19 08:04:38;;;;;;;3.00;2.77;;;14.60;99.50;;;;;;5117124;28;20474;-58
2023/03/19 08:07:05;;;;;;;3.50;2.90;;;14.70;99.30;;;;;;5117019;28;20447;-58
2023/03/19 08:09:32;;;;;;;2.97;2.60;;;14.80;99.10;;;;;;5117030;28;20453;-59
2023/03/19 08:12:01;;;;;;;4.00;2.47;;;14.90;98.80;;;;;;5116938;28;20449;-59
2023/03/19 08:14:27;;;;;;;3.23;3.00;;;15.00;98.70;;;;;;5116850;28;20451;-58
2023/03/19 08:16:54;;;;;;;3.00;2.77;;;15.10;98.50;;;;;;5117782;28;20443;-59
2023/03/19 08:19:21;;;;;;;3.33;3.03;;;15.30;98.10;;;;;;5116949;28;20454;-58
2023/03/19 08:21:48;;;;;;;4.27;2.60;;;15.40;97.50;;;;;;5116770;28;20455;-58
2023/03/19 08:24:15;;;;;;;3.70;2.90;;;15.50;97.40;;;;;;5116753;28;20478;-59
2023/03/19 08:26:41;;;;;;;4.03;2.80;;;15.60;97.10;;;;;;5116692;28;20443;-58
2023/03/19 08:29:09;;;;;;;3.17;2.87;;;15.80;96.50;;;;;;5116732;28;20512;-58
2023/03/19 08:31:36;;;;;;;3.77;3.37;;;15.90;96.30;;;;;;5116368;28;20458;-59
2023/03/19 08:34:03;;;;;;;2.63;2.40;;;16.00;95.40;;;;;;5116593;28;20475;-59
2023/03/19 08:36:30;;;;;;;5.73;3.03;;;16.00;95.40;;;;;;5116418;28;20446;-58
2023/03/19 08:38:57;;;;;;;3.73;2.90;;;16.00;95.30;;;;;;5116233;28;20459;-59
2023/03/19 08:41:24;;;;;;;3.27;2.97;;;16.00;95.40;;;;;;5116187;28;20446;-58
2023/03/19 08:43:51;;;;;;;4.20;2.73;;;15.90;95.00;;;;;;5115929;28;21010;-58
2023/03/19 08:46:19;;;;;;;3.40;3.13;;;15.90;95.30;;;;;;5116370;28;20453;-58
2023/03/19 08:48:46;;;;;;;3.30;3.10;;;15.80;95.90;;;;;;5115040;28;20450;-58
2023/03/19 08:51:13;;;;;;;3.50;3.30;;;15.80;95.60;;;;;;5116602;27;20833;-57
2023/03/19 08:53:39;;;;;;;6.60;2.83;;;15.90;95.60;;;;;;5116138;28;20485;-58
2023/03/19 08:56:07;;;;;;;6.53;2.90;;;15.90;95.30;;;;;;5116132;28;20529;-58
2023/03/19 08:58:34;;;;;;;3.13;2.83;;;16.00;95.00;;;;;;5116079;28;20524;-58
2023/03/19 09:01:02;;;;;;;2.70;2.53;;;16.00;94.90;;;;;;5115943;28;20446;-59
2023/03/19 09:03:31;;;;;;;3.03;2.77;;;16.00;94.90;;;;;;5115668;28;20900;-57
2023/03/19 09:06:00;;;;;;;3.17;2.87;;;16.00;94.70;;;;;;5115638;28;20485;-57
2023/03/19 09:08:27;;;;;;;3.47;3.23;;;16.00;95.20;;;;;;5115470;28;20924;-58
2023/03/19 09:10:54;;;;;;;3.20;2.90;;;16.10;95.60;;;;;;5115626;28;20951;-58
2023/03/19 09:13:21;;;;;;;3.27;2.97;;;16.20;95.30;;;;;;5115730;28;20474;-58
2023/03/19 09:15:48;;;;;;;3.33;3.13;;;16.20;94.80;;;;;;5115677;28;20443;-58
2023/03/19 09:18:15;;;;;;;2.73;2.53;;;16.30;94.20;;;;;;5116257;28;20451;-59
2023/03/19 09:20:43;;;;;;;3.50;3.10;;;16.40;94.40;;;;;;5115583;28;20792;-58
2023/03/19 09:23:10;;;;;;;3.33;3.03;;;16.50;94.00;;;;;;5115669;28;20463;-58
2023/03/19 09:25:37;;;;;;;3.30;3.10;;;16.60;93.30;;;;;;5115503;28;20482;-59
2023/03/19 09:28:03;;;;;;;3.77;3.47;;;16.70;93.20;;;;;;5115561;28;20447;-58
2023/03/19 09:30:30;;;;;;;3.27;3.07;;;16.70;93.40;;;;;;5115476;28;20450;-58
2023/03/19 09:32:57;;;;;;;3.90;3.20;;;16.80;93.30;;;;;;5115483;28;20463;-58
2023/03/19 09:35:29;;;;;;;3.50;3.20;;;16.70;92.70;;;;;;5115507;28;20451;-57
2023/03/19 09:37:57;;;;;;;3.63;3.33;;;16.70;92.90;;;;;;5116458;28;20458;-58
2023/03/19 09:40:28;;;;;;;4.07;3.10;;;16.80;92.70;;;;;;5116439;28;20431;-57
2023/03/19 09:43:05;;;;;;;3.40;3.10;;;16.80;92.00;;;;;;5115513;28;20467;-55
2023/03/19 09:45:32;;;;;;;3.43;3.13;;;17.00;91.90;;;;;;5116299;28;20985;-56
2023/03/19 09:48:05;;;;;;;2.60;2.40;;;17.10;91.50;;;;;;5115539;28;20446;-56
2023/03/19 09:50:35;;;;;;;2.70;2.50;;;17.20;91.60;;;;;;5115515;28;20427;-56
2023/03/19 09:53:08;;;;;;;3.43;3.20;;;17.30;91.40;;;;;;5115347;28;20565;-56
2023/03/19 09:55:40;;;;;;;2.70;2.50;;;17.30;91.60;;;;;;5114913;28;20800;-56
2023/03/19 09:58:13;;;;;;;5.13;2.93;;;17.30;91.40;;;;;;5114727;28;20901;-56
2023/03/19 10:00:41;;;;;;;4.33;2.80;;;17.20;91.10;;;;;;5114876;28;20459;-56
2023/03/19 10:03:25;;;;;;;3.77;3.43;;;17.20;91.00;;;;;;5114922;28;20834;-56
2023/03/19 10:06:01;;;;;;;3.90;3.03;;;17.00;91.60;;;;;;5114983;28;20548;-56
2023/03/19 10:08:42;;;;;;;3.50;3.20;;;16.90;91.40;;;;;;5114610;28;20423;-56
2023/03/19 10:11:26;;;;;;;3.57;3.23;;;16.80;91.80;;;;;;5114927;28;20431;-55
2023/03/19 10:14:02;;;;;;;4.50;3.80;;;16.70;91.90;;;;;;5114664;28;20502;-55
2023/03/19 10:16:30;;;;;;;3.53;3.27;;;16.60;92.10;;;;;;5114877;28;20827;-56
2023/03/19 10:19:00;;;;;;;7.00;3.80;;;16.50;92.00;;;;;;5114701;28;20455;-55
2023/03/19 10:21:33;;;;;;;10.43;4.70;;;16.40;92.30;;;;;;5114789;28;20442;-56
2023/03/19 10:24:04;;;;;;;23.87;5.87;;;16.30;92.80;;;;;;5114513;28;20978;-56
2023/03/19 10:26:34;;;;;;;6.30;3.53;;;16.30;93.30;;;;;;5114516;28;20463;-56
2023/03/19 10:29:05;;;;;;;4.00;3.60;;;16.30;92.40;;;;;;5114680;28;20891;-56
2023/03/19 10:31:45;;;;;;;6.87;3.63;;;16.30;92.30;;;;;;5113897;28;20908;-56
2023/03/19 10:34:30;;;;;;;4.90;3.90;;;16.30;92.30;;;;;;5114569;28;20467;-56
2023/03/19 10:37:00;;;;;;;3.67;3.37;;;16.30;92.20;;;;;;5114527;28;20446;-56
2023/03/19 10:39:29;;;;;;;9.37;3.60;;;16.40;93.00;;;;;;5114182;28;20455;-56
2023/03/19 10:42:08;;;;;;;7.23;3.80;;;16.80;92.80;;;;;;5114025;28;20928;-56
2023/03/19 10:44:38;;;;;;;4.33;3.40;;;17.50;91.50;;;;;;5114305;28;20431;-56
2023/03/19 10:47:13;;;;;;;9.73;4.03;;;18.10;85.20;;;;;;5114200;28;20822;-57
2023/03/19 10:49:40;;;;;;;12.80;3.63;;;18.30;85.30;;;;;;5114006;28;20936;-56
2023/03/19 10:52:21;;;;;;;8.33;3.80;;;18.50;85.20;;;;;;5113777;28;20439;-56
2023/03/19 10:54:54;;;;;;;6.90;4.50;;;18.50;83.00;;;;;;5114081;28;20435;-56
2023/03/19 10:57:23;;;;;;;4.00;3.60;;;18.10;82.60;;;;;;5114179;28;20207;-56
2023/03/19 10:59:50;;;;;;;3.87;3.57;;;17.50;83.80;;;;;;5113815;28;20458;-57
2023/03/19 11:02:19;;;;;;;3.53;3.23;;;17.00;84.30;;;;;;5113950;28;20442;-56
2023/03/19 11:04:46;;;;;;;4.30;3.90;;;16.60;87.30;;;;;;5114186;28;20522;-57
2023/03/19 11:07:15;;;;;;;6.07;4.73;;;16.40;89.00;;;;;;5113935;28;20446;-56
2023/03/19 11:09:44;;;;;;;4.00;3.70;;;16.20;90.70;;;;;;5114077;28;20443;-56
2023/03/19 11:12:19;;;;;;;8.57;4.57;;;16.00;90.80;;;;;;5113267;28;20451;-56
2023/03/19 11:14:47;;;;;;;5.83;4.70;;;15.90;91.40;;;;;;5113513;28;20791;-56
2023/03/19 11:17:22;;;;;;;6.17;4.40;;;15.90;91.80;;;;;;5113829;28;20446;-57
2023/03/19 11:19:52;;;;;;;4.40;4.00;;;16.00;92.30;;;;;;5113593;28;20916;-55
2023/03/19 11:22:22;;;;;;;5.33;4.40;;;16.10;92.40;;;;;;5113705;28;20524;-56
2023/03/19 11:24:52;;;;;;;5.00;4.27;;;16.10;91.60;;;;;;5113735;28;20427;-56
2023/03/19 11:27:28;;;;;;;4.27;3.87;;;16.00;91.60;;;;;;5113681;28;20431;-56
2023/03/19 11:29:55;;;;;;;5.40;4.70;;;16.00;91.70;;;;;;5113664;28;20427;-56
2023/03/19 11:32:40;;;;;;;4.03;3.70;;;15.90;92.60;;;;;;5113517;28;20471;-56
2023/03/19 11:35:11;;;;;;;5.10;4.60;;;15.80;92.40;;;;;;5113511;28;20431;-56
2023/03/19 11:37:50;;;;;;;6.07;4.03;;;15.60;92.50;;;;;;5113414;28;20431;-56
2023/03/19 11:40:25;;;;;;;4.50;4.10;;;15.40;92.70;;;;;;5113439;28;20430;-56
2023/03/19 11:43:13;;;;;;;4.77;3.73;;;15.20;94.00;;;;;;5113151;28;20465;-56
2023/03/19 11:45:49;;;;;;;4.87;4.37;;;15.10;94.20;;;;;;5113500;28;20478;-56
2023/03/19 11:48:30;;;;;;;4.63;4.23;;;14.90;95.20;;;;;;5113368;28;20430;-55
2023/03/19 11:51:00;;;;;;;3.83;3.53;;;14.90;95.90;;;;;;5113790;28;20459;-55
2023/03/19 11:53:30;;;;;;;3.13;2.83;;;15.00;95.90;;;;;;5113327;28;20467;-56
2023/03/19 11:56:07;;;;;;;7.70;3.73;;;15.00;95.10;;;;;;5113298;28;20832;-55
2023/03/19 11:58:54;;;;;;;3.70;3.30;;;15.10;95.10;;;;;;5113308;28;20430;-56
2023/03/19 12:01:38;;;;;;;3.97;3.57;;;15.30;94.60;;;;;;5113171;28;20533;-55
2023/03/19 12:04:29;;;;;;;3.73;3.30;;;15.40;94.30;;;;;;5113401;28;20470;-57
2023/03/19 12:07:03;;;;;;;3.70;3.40;;;15.60;93.90;;;;;;5088568;28;20483;-56
2023/03/19 12:09:36;;;;;;;4.63;3.43;;;15.90;93.70;;;;;;5113353;28;20427;-57
2023/03/19 12:12:12;;;;;;;3.93;3.53;;;16.10;93.30;;;;;;5112823;28;20787;-57
2023/03/19 12:14:51;;;;;;;3.93;3.27;;;16.50;93.00;;;;;;5112805;28;20797;-56
2023/03/19 12:17:29;;;;;;;3.57;3.27;;;17.10;91.80;;;;;;5113201;28;20426;-56
2023/03/19 12:20:11;;;;;;;5.43;3.20;;;17.50;90.90;;;;;;5113211;28;20439;-57
2023/03/19 12:22:49;;;;;;;3.70;3.40;;;17.90;89.60;;;;;;5114216;28;20494;-56
2023/03/19 12:25:41;;;;;;;4.37;3.90;;;18.20;87.20;;;;;;5116779;28;20557;-57
2023/03/19 12:28:15;;;;;;;3.97;3.63;;;18.40;84.10;;;;;;5113726;28;20534;-57
2023/03/19 12:30:49;;;;;;;4.43;3.77;;;18.60;83.50;;;;;;5116788;28;20426;-57
2023/03/19 12:33:29;;;;;;;3.80;3.10;;;19.00;81.60;;;;;;5117132;28;20473;-57
2023/03/19 12:35:56;;;;;;;3.07;2.77;;;20.10;81.00;;;;;;5118328;28;20423;-57
2023/03/19 12:38:27;;;;;;;3.57;2.77;;;21.60;69.20;;;;;;5117112;28;20451;-57
2023/03/19 12:40:58;;;;;;;2.93;2.63;;;23.10;61.00;;;;;;5116783;28;20433;-56
2023/03/19 12:43:28;;;;;;;5.50;2.70;;;23.40;56.10;;;;;;5116484;28;20471;-57
2023/03/19 12:46:01;;;;;;;2.67;2.23;;;23.10;53.60;;;;;;5116235;28;20856;-56
2023/03/19 12:48:31;;;;;;;6.00;2.70;;;22.40;56.30;;;;;;5116382;28;20427;-56
2023/03/19 12:51:05;;;;;;;2.50;2.30;;;22.00;56.70;;;;;;5116764;28;20455;-57
2023/03/19 12:53:43;;;;;;;2.60;2.40;;;21.80;58.10;;;;;;5116558;28;20523;-56